Time;durP1;ratioP1;P1;durP2;ratioP2;P2;SDS_P1;SDS_P2;PMS_P1;PMS_P2;Temp;Humidity;BMP_temperature;BMP_pressure;BME280_temperature;BME280_humidity;BME280_pressure;Samples;Min_cycle;Max_cycle;Signal;HPM_P1;HPM_P2
2023/01/06 00:02:18;;;;;;;4.17;2.83;;;3.30;99.90;;;3.03;70.77;100309.66;5103688;28;20212;-68
2023/01/06 00:04:47;;;;;;;3.20;2.90;;;3.20;99.90;;;2.99;70.52;100318.06;5084323;28;20242;-68
2023/01/06 00:07:15;;;;;;;4.83;4.00;;;3.20;99.90;;;2.97;70.38;100313.75;5104926;28;20630;-66
2023/01/06 00:09:45;;;;;;;3.47;2.97;;;3.20;99.90;;;2.99;71.22;100315.50;5103032;28;20227;-67
2023/01/06 00:12:14;;;;;;;3.23;2.93;;;3.10;99.90;;;2.98;71.08;100326.50;5099571;28;20347;-68
2023/01/06 00:14:43;;;;;;;3.13;2.80;;;3.20;99.90;;;2.98;70.13;100338.38;5100083;28;20305;-69
2023/01/06 00:17:11;;;;;;;5.07;2.97;;;3.20;99.90;;;2.95;70.52;100336.63;5103060;28;20557;-68
2023/01/06 00:19:41;;;;;;;4.43;3.40;;;3.10;99.90;;;2.92;70.86;100340.78;5097136;28;20879;-68
2023/01/06 00:22:10;;;;;;;3.13;2.80;;;3.10;99.90;;;2.92;71.33;100345.88;5100952;28;20200;-68
2023/01/06 00:24:39;;;;;;;4.23;3.30;;;3.10;99.90;;;2.93;71.55;100350.13;5104008;28;20696;-67
2023/01/06 00:27:09;;;;;;;4.47;3.13;;;3.10;99.90;;;2.93;71.16;100352.69;5108499;28;20710;-68
2023/01/06 00:29:39;;;;;;;5.30;3.47;;;3.20;99.90;;;2.94;71.27;100359.47;5109531;28;20691;-67
2023/01/06 00:32:08;;;;;;;3.87;2.77;;;3.10;99.90;;;2.94;71.07;100362.03;5106113;28;20245;-67
2023/01/06 00:34:36;;;;;;;3.87;3.00;;;3.10;99.90;;;2.92;70.70;100366.22;5109416;28;20598;-67
2023/01/06 00:37:05;;;;;;;3.20;2.70;;;3.10;99.90;;;2.89;70.95;100367.00;5107966;28;20253;-69
2023/01/06 00:39:33;;;;;;;6.00;3.03;;;3.10;99.90;;;2.89;70.05;100382.28;5108349;28;20284;-68
2023/01/06 00:42:05;;;;;;;4.83;3.10;;;3.10;99.90;;;2.87;70.89;100383.91;5109570;28;20656;-67
2023/01/06 00:44:37;;;;;;;3.03;2.63;;;3.10;99.90;;;2.85;70.95;100391.53;5108584;28;20339;-67
2023/01/06 00:47:10;;;;;;;3.23;2.93;;;3.00;99.90;;;2.85;71.34;100391.53;5108385;28;20258;-67
2023/01/06 00:49:39;;;;;;;3.33;2.97;;;3.10;99.90;;;2.87;70.21;100400.06;5108949;28;20575;-67
2023/01/06 00:52:07;;;;;;;4.30;3.10;;;3.10;99.90;;;2.87;70.92;100405.16;5108108;28;20254;-66
2023/01/06 00:54:36;;;;;;;4.50;3.20;;;3.10;99.90;;;2.85;70.12;100414.41;5108865;28;20555;-66
2023/01/06 00:57:07;;;;;;;2.97;2.57;;;3.10;99.90;;;2.85;70.02;100405.94;5107057;28;20211;-67
2023/01/06 00:59:37;;;;;;;3.87;3.07;;;3.00;99.90;;;2.81;70.73;100415.16;5109204;28;20208;-65
2023/01/06 01:02:06;;;;;;;3.53;3.17;;;3.00;99.90;;;2.81;70.81;100409.22;5108313;28;20208;-67
2023/01/06 01:04:35;;;;;;;3.17;2.87;;;3.00;99.90;;;2.79;70.13;100416.78;5107015;28;20227;-67
2023/01/06 01:07:05;;;;;;;4.33;3.30;;;3.00;99.90;;;2.79;70.09;100421.88;5108387;28;20200;-66
2023/01/06 01:09:34;;;;;;;3.53;3.10;;;3.00;99.90;;;2.78;70.54;100415.09;5108038;28;20212;-67
2023/01/06 01:12:11;;;;;;;3.53;3.07;;;3.00;99.90;;;2.76;71.25;100416.75;5103743;28;20564;-66
2023/01/06 01:14:46;;;;;;;3.70;3.30;;;3.00;99.90;;;2.75;70.69;100420.09;5103719;28;20218;-67
2023/01/06 01:17:18;;;;;;;3.80;3.40;;;3.00;99.90;;;2.80;71.21;100440.56;5107479;28;20230;-67
2023/01/06 01:19:47;;;;;;;3.03;2.73;;;3.00;99.90;;;2.79;70.27;100451.56;5108637;28;20319;-68
2023/01/06 01:22:16;;;;;;;3.47;2.97;;;3.00;99.90;;;2.79;70.27;100454.09;5107036;28;20211;-67
2023/01/06 01:24:45;;;;;;;3.30;3.00;;;3.00;99.90;;;2.77;70.16;100454.09;5106063;28;20200;-67
2023/01/06 01:27:14;;;;;;;2.63;2.43;;;3.00;99.90;;;2.77;70.20;100458.31;5108271;28;20291;-66
2023/01/06 01:29:44;;;;;;;3.30;2.90;;;3.00;99.90;;;2.75;70.30;100465.03;5103144;28;20207;-67
2023/01/06 01:32:12;;;;;;;4.00;3.13;;;2.90;99.90;;;2.73;70.21;100467.56;5100476;28;20200;-66
2023/01/06 01:34:41;;;;;;;2.87;2.60;;;2.90;99.90;;;2.71;70.74;100484.44;5108498;28;20259;-67
2023/01/06 01:37:09;;;;;;;3.10;2.80;;;2.90;99.90;;;2.69;71.15;100475.91;5110957;28;20339;-67
2023/01/06 01:39:37;;;;;;;3.50;2.70;;;2.90;99.90;;;2.69;70.85;100491.19;5111856;28;21533;-68
2023/01/06 01:42:13;;;;;;;4.43;2.50;;;2.90;99.90;;;2.69;70.66;100493.72;5110834;28;20570;-69
2023/01/06 01:45:06;;;;;;;2.97;2.77;;;2.90;99.90;;;2.73;71.37;100497.22;5110780;27;20192;-66
2023/01/06 01:47:44;;;;;;;3.30;2.90;;;2.90;99.90;;;2.73;71.02;100487.91;5106822;27;20280;-67
2023/01/06 01:50:31;;;;;;;3.83;3.50;;;2.90;99.90;;;2.77;70.67;100497.34;5110311;28;20207;-66
2023/01/06 01:53:06;;;;;;;3.13;2.83;;;2.90;99.90;;;2.77;70.83;100507.53;5111138;27;20196;-65
2023/01/06 01:55:36;;;;;;;3.40;3.10;;;2.90;99.90;;;2.78;71.00;100511.78;5112509;28;20245;-66
2023/01/06 01:58:10;;;;;;;3.10;2.80;;;2.90;99.90;;;2.74;69.85;100509.97;5111650;28;20200;-67
2023/01/06 02:00:42;;;;;;;3.10;2.80;;;3.00;99.90;;;2.75;70.48;100514.22;5109029;28;20323;-67
2023/01/06 02:03:14;;;;;;;3.57;2.93;;;2.90;99.90;;;2.73;70.99;100510.81;5112309;28;20242;-67
2023/01/06 02:05:46;;;;;;;3.37;3.07;;;2.90;99.90;;;2.75;70.50;100529.50;5109517;28;20212;-65
2023/01/06 02:08:28;;;;;;;3.77;3.07;;;2.90;99.90;;;2.74;70.55;100545.59;5112498;28;20648;-68
2023/01/06 02:10:56;;;;;;;4.20;3.10;;;2.90;99.90;;;2.73;69.86;100545.56;5108993;28;20285;-67
2023/01/06 02:13:25;;;;;;;3.27;2.93;;;2.90;99.90;;;2.68;69.58;100550.50;5111545;28;20281;-66
2023/01/06 02:16:04;;;;;;;3.30;3.00;;;2.90;99.90;;;2.65;69.82;100555.50;5110232;28;20986;-67
2023/01/06 02:18:53;;;;;;;3.60;2.97;;;2.80;99.90;;;2.61;70.08;100551.13;5107613;28;20211;-68
2023/01/06 02:21:38;;;;;;;4.07;3.00;;;2.80;99.90;;;2.57;69.76;100544.25;5105904;28;20750;-66
2023/01/06 02:24:53;;;;;;;3.60;3.07;;;2.80;99.90;;;2.57;70.08;100562.91;5110063;28;20736;-67
2023/01/06 02:27:52;;;;;;;3.20;2.90;;;2.80;99.90;;;2.58;69.20;100568.88;5108653;28;20200;-68
2023/01/06 02:31:13;;;;;;;3.60;3.17;;;2.70;99.90;;;2.53;69.60;100585.69;5107115;27;20204;-68
2023/01/06 02:33:51;;;;;;;3.23;2.77;;;2.70;99.90;;;2.52;68.77;100591.59;5099620;28;20226;-67
2023/01/06 02:36:33;;;;;;;2.77;2.13;;;2.70;99.90;;;2.48;69.36;100592.31;5110995;28;20199;-68
2023/01/06 02:39:24;;;;;;;2.97;2.77;;;2.60;99.90;;;2.45;69.66;100589.69;5112270;28;20664;-69
2023/01/06 02:42:09;;;;;;;3.37;2.90;;;2.60;99.90;;;2.42;69.75;100595.53;5108641;27;20300;-67
2023/01/06 02:44:50;;;;;;;3.53;2.90;;;2.50;99.90;;;2.38;68.89;100607.28;5110893;28;20684;-67
2023/01/06 02:47:30;;;;;;;2.73;2.53;;;2.50;99.90;;;2.37;69.52;100618.28;5111567;28;20252;-67
2023/01/06 02:50:12;;;;;;;2.97;2.53;;;2.50;99.90;;;2.37;69.21;100615.75;5108796;28;20241;-67
2023/01/06 02:52:48;;;;;;;3.33;2.53;;;2.60;99.90;;;2.41;69.86;100626.88;5110052;28;20204;-66
2023/01/06 02:55:23;;;;;;;2.93;2.70;;;2.60;99.90;;;2.42;69.39;100629.44;5111935;28;20207;-67
2023/01/06 02:57:58;;;;;;;2.67;2.20;;;2.60;99.90;;;2.41;69.18;100627.72;5111187;28;20219;-66
2023/01/06 03:00:34;;;;;;;3.00;2.37;;;2.60;99.90;;;2.38;69.52;100632.72;5108344;28;20820;-67
2023/01/06 03:03:09;;;;;;;2.63;2.43;;;2.60;99.90;;;2.36;68.77;100642.00;5109663;28;20199;-67
2023/01/06 03:05:44;;;;;;;2.57;2.37;;;2.50;99.90;;;2.35;68.66;100632.63;5106986;28;20221;-67
2023/01/06 03:08:17;;;;;;;2.50;2.30;;;2.50;99.90;;;2.32;68.12;100631.66;5110341;28;20563;-67
2023/01/06 03:10:49;;;;;;;2.43;2.23;;;2.50;99.90;;;2.34;68.55;100637.66;5107634;28;20196;-65
2023/01/06 03:13:25;;;;;;;2.87;2.53;;;2.50;99.90;;;2.30;68.01;100646.88;5109596;28;20246;-65
2023/01/06 03:15:53;;;;;;;2.40;2.20;;;2.50;99.90;;;2.25;68.50;100635.72;5106854;28;20231;-65
2023/01/06 03:18:22;;;;;;;2.60;2.40;;;2.40;99.90;;;2.28;68.32;100645.09;5108983;28;20657;-66
2023/01/06 03:20:57;;;;;;;3.07;2.60;;;2.40;99.90;;;2.28;68.24;100643.41;5107969;27;20704;-68
2023/01/06 03:23:26;;;;;;;2.37;2.17;;;2.50;99.90;;;2.32;68.44;100647.81;5110744;28;20219;-66
2023/01/06 03:25:55;;;;;;;2.53;2.17;;;2.50;99.90;;;2.33;68.31;100659.69;5109513;28;20256;-66
2023/01/06 03:28:23;;;;;;;4.07;2.23;;;2.40;99.90;;;2.32;68.34;100657.97;5102099;28;20584;-68
2023/01/06 03:30:57;;;;;;;2.50;2.20;;;2.50;99.90;;;2.36;67.83;100654.72;5106111;28;20587;-66
2023/01/06 03:33:34;;;;;;;2.40;2.20;;;2.70;99.90;;;2.36;67.56;100653.84;5109289;28;20290;-68
2023/01/06 03:36:16;;;;;;;2.87;2.50;;;2.50;99.90;;;2.41;68.06;100658.25;5109804;28;20208;-67
2023/01/06 03:38:56;;;;;;;2.50;2.27;;;2.50;99.90;;;2.46;67.72;100666.00;5109275;28;20199;-67
2023/01/06 03:44:26;;;;;;;2.50;2.20;;;2.60;99.90;;;2.53;67.86;100679.78;5107894;28;20200;-68
2023/01/06 03:47:05;;;;;;;2.97;2.60;;;2.70;99.90;;;2.56;68.15;100682.44;5096448;28;20199;-67
2023/01/06 03:49:39;;;;;;;2.50;2.30;;;2.70;99.90;;;2.57;67.81;100681.59;5110200;28;20675;-67
2023/01/06 03:52:19;;;;;;;2.30;2.10;;;2.70;99.90;;;2.59;67.94;100682.53;5108058;28;20200;-68
2023/01/06 03:54:57;;;;;;;2.47;2.27;;;2.70;99.90;;;2.58;67.17;100685.91;5109552;28;20617;-67
2023/01/06 03:57:31;;;;;;;2.93;2.43;;;2.70;99.90;;;2.59;67.46;100685.06;5108394;28;20280;-67
2023/01/06 04:00:05;;;;;;;3.87;2.97;;;2.70;99.90;;;2.59;67.33;100680.00;5106296;28;20212;-67
2023/01/06 04:02:37;;;;;;;2.77;2.43;;;2.50;99.90;;;2.62;66.73;100687.72;5104269;28;20258;-66
2023/01/06 04:05:10;;;;;;;3.10;2.80;;;2.80;99.90;;;2.65;67.22;100691.22;5109601;28;20200;-68
2023/01/06 04:07:42;;;;;;;3.00;2.67;;;2.80;99.90;;;2.71;66.86;100697.31;5108373;28;20196;-67
2023/01/06 04:10:12;;;;;;;2.70;2.50;;;2.80;99.90;;;2.68;67.64;100692.97;5106405;28;20285;-68
2023/01/06 04:12:41;;;;;;;2.60;2.40;;;2.90;99.90;;;2.73;67.34;100699.09;5107310;28;20212;-67
2023/01/06 04:15:12;;;;;;;3.47;2.47;;;2.80;99.90;;;2.72;67.65;100697.34;5109262;28;20232;-67
2023/01/06 04:17:42;;;;;;;2.87;2.67;;;2.80;99.90;;;2.71;66.88;100715.97;5106735;28;20200;-68
2023/01/06 04:20:14;;;;;;;3.40;3.10;;;2.80;99.90;;;2.68;67.15;100703.16;5106363;28;20227;-67
2023/01/06 04:22:44;;;;;;;2.57;2.27;;;2.80;99.90;;;2.64;67.10;100706.41;5108578;28;20548;-68
2023/01/06 04:25:13;;;;;;;3.07;2.77;;;2.80;99.90;;;2.62;67.02;100708.06;5109043;28;20570;-66
2023/01/06 04:27:43;;;;;;;2.57;2.37;;;2.70;99.90;;;2.59;67.46;100708.84;5108661;28;20660;-67
2023/01/06 04:30:12;;;;;;;3.77;2.83;;;2.70;99.90;;;2.55;67.64;100717.19;5107967;28;20609;-67
2023/01/06 04:32:41;;;;;;;3.20;2.87;;;2.70;99.90;;;2.55;67.75;100709.56;5109428;28;20621;-66
2023/01/06 04:35:10;;;;;;;3.87;3.10;;;2.70;99.90;;;2.54;67.73;100712.03;5108137;28;20520;-67
2023/01/06 04:37:38;;;;;;;3.00;2.80;;;2.70;99.90;;;2.56;67.34;100712.97;5110344;28;20620;-65
2023/01/06 04:40:10;;;;;;;3.20;2.90;;;2.70;99.90;;;2.53;67.25;100713.72;5108759;28;20237;-66
2023/01/06 04:45:24;;;;;;;3.13;2.83;;;2.70;99.90;;;2.47;66.93;100723.72;5104190;28;20216;-67
2023/01/06 04:47:53;;;;;;;3.87;2.70;;;2.60;99.90;;;2.44;66.76;100712.56;5109642;28;20216;-67
2023/01/06 04:50:21;;;;;;;2.90;2.70;;;2.60;99.90;;;2.46;67.18;100718.56;5107657;28;20204;-66
2023/01/06 04:52:50;;;;;;;2.93;2.37;;;2.60;99.90;;;2.45;67.04;100717.69;5109040;28;20245;-67
2023/01/06 04:55:20;;;;;;;2.83;2.63;;;2.90;99.90;;;2.42;66.20;100718.47;5108770;28;20257;-68
2023/01/06 04:57:48;;;;;;;2.73;2.53;;;2.50;99.90;;;2.43;66.86;100711.72;5109740;28;20258;-68
2023/01/06 05:00:18;;;;;;;2.87;2.67;;;2.60;99.90;;;2.44;66.85;100712.56;5104822;28;20231;-67
2023/01/06 05:02:47;;;;;;;2.70;2.50;;;2.50;99.90;;;2.40;66.17;100715.03;5096192;28;20366;-66
2023/01/06 05:05:17;;;;;;;3.00;2.70;;;2.50;99.90;;;2.37;66.41;100708.97;5108168;28;20215;-67
2023/01/06 05:07:45;;;;;;;3.20;2.90;;;2.50;99.90;;;2.34;66.78;100717.34;5107948;28;20229;-67
2023/01/06 05:10:14;;;;;;;3.00;2.73;;;2.50;99.90;;;2.29;66.36;100718.03;5106517;28;20227;-67
2023/01/06 05:12:44;;;;;;;2.90;2.60;;;2.50;99.90;;;2.25;67.04;100706.03;5106338;28;20268;-66
2023/01/06 05:15:12;;;;;;;2.67;2.47;;;2.40;99.90;;;2.21;66.28;100709.28;5106856;28;20223;-67
2023/01/06 05:17:41;;;;;;;3.43;2.80;;;2.40;99.90;;;2.16;66.90;100712.53;5108716;28;20200;-67
2023/01/06 05:20:10;;;;;;;2.90;2.70;;;2.30;99.90;;;2.13;66.20;100716.63;5101389;28;20969;-67
2023/01/06 05:22:39;;;;;;;3.00;2.70;;;2.30;99.90;;;2.17;66.43;100715.94;5108583;28;20649;-67
2023/01/06 05:25:08;;;;;;;3.23;2.40;;;2.40;99.90;;;2.12;67.00;100725.09;5108569;28;20253;-68
2023/01/06 05:27:37;;;;;;;3.30;3.00;;;2.30;99.90;;;2.09;66.81;100730.94;5109613;28;20208;-67
2023/01/06 05:30:08;;;;;;;3.17;2.80;;;2.30;99.90;;;2.07;66.48;100736.78;5108074;28;20615;-66
2023/01/06 05:32:37;;;;;;;4.33;2.47;;;2.20;99.90;;;2.08;67.02;100743.59;5108147;28;20281;-65
2023/01/06 05:35:06;;;;;;;2.90;2.50;;;2.30;99.90;;;2.08;66.73;100753.75;5106704;28;20672;-67
2023/01/06 05:37:35;;;;;;;2.37;2.20;;;2.30;99.90;;;2.04;66.30;100750.25;5107723;28;20204;-65
2023/01/06 05:40:04;;;;;;;2.83;2.50;;;2.20;99.90;;;2.01;66.70;100752.69;5106735;28;20216;-66
2023/01/06 05:42:33;;;;;;;2.97;2.63;;;2.20;99.90;;;2.01;66.98;100752.69;5105743;28;20208;-65
2023/01/06 05:45:04;;;;;;;2.87;2.53;;;2.20;99.90;;;2.04;67.30;100757.03;5105799;28;20219;-66
2023/01/06 05:47:34;;;;;;;2.70;2.47;;;2.20;99.90;;;2.03;66.31;100760.38;5107836;28;20675;-67
2023/01/06 05:50:02;;;;;;;3.43;2.80;;;2.20;99.90;;;2.02;66.70;100764.56;5106604;28;20596;-67
2023/01/06 05:52:31;;;;;;;3.53;2.40;;;2.20;99.90;;;2.04;66.40;100769.72;5106205;28;20211;-67
2023/01/06 05:54:59;;;;;;;3.07;2.70;;;2.20;99.90;;;2.04;66.90;100774.81;5103100;28;20217;-66
2023/01/06 05:57:27;;;;;;;3.30;3.00;;;2.20;99.90;;;2.06;67.02;100774.06;5100112;28;20216;-68
2023/01/06 05:59:56;;;;;;;3.20;2.60;;;2.20;99.90;;;2.06;66.61;100770.63;5105616;28;20726;-68
2023/01/06 06:02:25;;;;;;;4.10;3.07;;;2.20;99.90;;;2.07;66.65;100777.47;5107626;28;20213;-66
2023/01/06 06:04:55;;;;;;;2.40;2.20;;;2.20;99.90;;;2.09;67.35;100786.00;5107040;28;20690;-67
2023/01/06 06:07:23;;;;;;;3.80;3.00;;;2.20;99.90;;;2.10;67.07;100795.34;5107630;28;20205;-66
2023/01/06 06:09:52;;;;;;;3.20;2.90;;;2.20;99.90;;;2.10;66.84;100782.63;5105054;28;20285;-67
2023/01/06 06:12:20;;;;;;;2.90;2.70;;;2.20;99.90;;;2.11;67.36;100794.53;5107358;28;20280;-68
2023/01/06 06:14:49;;;;;;;3.20;2.90;;;2.20;99.90;;;2.11;66.88;100802.16;5103594;28;20211;-66
2023/01/06 06:17:17;;;;;;;2.80;2.50;;;2.20;99.90;;;2.10;66.47;100800.41;5101516;28;20687;-65
2023/01/06 06:19:46;;;;;;;3.13;2.83;;;2.20;99.90;;;2.06;66.89;100793.50;5106435;28;20319;-66
2023/01/06 06:22:16;;;;;;;2.57;2.37;;;2.20;99.90;;;2.01;66.88;100787.41;5107061;28;20200;-67
2023/01/06 06:24:44;;;;;;;2.77;2.37;;;2.20;99.90;;;2.06;66.80;100803.66;5111422;28;20203;-68
2023/01/06 06:27:13;;;;;;;2.90;2.60;;;2.20;99.90;;;2.01;66.58;100798.44;5108940;28;20273;-68
2023/01/06 06:29:41;;;;;;;3.37;3.07;;;2.20;99.90;;;2.02;67.24;100801.84;5108883;28;20200;-67
2023/01/06 06:32:10;;;;;;;3.33;2.97;;;2.10;99.90;;;2.01;67.32;100813.69;5111124;28;20299;-66
2023/01/06 06:34:38;;;;;;;3.33;3.00;;;2.10;99.90;;;2.03;67.25;100808.69;5103851;28;20499;-66
2023/01/06 06:37:07;;;;;;;3.10;2.80;;;2.10;99.90;;;2.03;66.85;100807.00;5110420;28;20332;-67
2023/01/06 06:39:37;;;;;;;3.40;3.10;;;2.10;99.90;;;2.02;67.58;100819.63;5111477;28;20214;-67
2023/01/06 06:42:06;;;;;;;3.50;3.20;;;2.10;99.90;;;2.03;67.68;100824.78;5110436;27;20613;-65
2023/01/06 06:44:34;;;;;;;3.70;3.00;;;2.20;99.90;;;2.02;67.51;100827.25;5108863;28;20269;-65
2023/01/06 06:47:03;;;;;;;3.10;2.80;;;2.20;99.90;;;2.00;67.67;100839.91;5104146;28;20204;-66
2023/01/06 06:49:31;;;;;;;3.57;3.17;;;2.10;99.90;;;2.02;67.39;100851.00;5106649;28;20216;-66
2023/01/06 06:52:00;;;;;;;3.40;3.10;;;2.10;99.90;;;2.02;67.56;100845.03;5110039;28;20600;-67
2023/01/06 06:54:28;;;;;;;3.43;2.90;;;2.10;99.90;;;2.01;66.90;100849.25;5112154;28;20463;-68
2023/01/06 06:56:58;;;;;;;2.87;2.60;;;2.10;99.90;;;1.99;66.61;100855.09;5110768;27;20285;-66
2023/01/06 06:59:27;;;;;;;3.50;3.20;;;2.10;99.90;;;1.99;66.43;100862.72;5109067;28;20200;-68
2023/01/06 07:01:55;;;;;;;3.20;2.90;;;2.10;99.90;;;1.98;66.72;100868.63;5108846;28;20227;-67
2023/01/06 07:04:24;;;;;;;3.73;3.30;;;2.10;99.90;;;1.91;67.40;100868.41;5111430;28;20210;-67
2023/01/06 07:06:52;;;;;;;3.40;3.10;;;2.10;99.90;;;1.88;67.37;100868.31;5104447;28;20243;-65
2023/01/06 07:09:21;;;;;;;3.97;3.47;;;2.00;99.90;;;1.83;67.23;100867.25;5107097;28;20287;-66
2023/01/06 07:11:49;;;;;;;6.00;4.53;;;2.00;99.90;;;1.78;67.70;100861.16;5109984;28;20208;-67
2023/01/06 07:14:19;;;;;;;4.23;3.77;;;2.00;99.90;;;1.79;67.74;100865.41;5109699;27;20253;-68
2023/01/06 07:16:48;;;;;;;3.67;3.23;;;2.00;99.90;;;1.81;67.78;100879.03;5107307;28;20228;-66
2023/01/06 07:19:16;;;;;;;3.60;3.30;;;2.00;99.90;;;1.84;67.51;100876.63;5108666;28;20211;-67
2023/01/06 07:21:45;;;;;;;4.80;3.67;;;2.00;99.90;;;1.88;67.91;100867.44;5108879;28;20211;-67
2023/01/06 07:24:13;;;;;;;3.13;2.83;;;2.00;99.90;;;1.91;67.81;100878.59;5108167;28;20200;-67
2023/01/06 07:26:42;;;;;;;4.60;3.60;;;2.10;99.90;;;1.98;67.16;100873.69;5102294;28;20203;-68
2023/01/06 07:29:10;;;;;;;4.67;4.10;;;2.10;99.90;;;1.99;67.32;100867.81;5104235;28;20200;-68
2023/01/06 07:31:40;;;;;;;4.60;2.87;;;2.10;99.90;;;1.98;67.36;100872.03;5106969;28;20215;-67
2023/01/06 07:34:09;;;;;;;4.00;3.50;;;2.00;99.90;;;1.94;67.37;100867.66;5110160;28;20295;-66
2023/01/06 07:36:37;;;;;;;4.30;3.70;;;2.10;99.90;;;1.93;67.60;100861.69;5108618;28;20820;-68
2023/01/06 07:39:06;;;;;;;3.73;3.27;;;2.10;99.90;;;1.92;68.45;100861.66;5103437;28;20219;-68
2023/01/06 07:41:34;;;;;;;4.07;3.40;;;2.10;99.90;;;1.95;67.49;100859.19;5102028;28;20309;-65
2023/01/06 07:44:03;;;;;;;4.60;3.60;;;2.10;99.90;;;1.96;68.03;100860.94;5104452;28;20261;-67
2023/01/06 07:46:31;;;;;;;4.47;3.83;;;2.20;99.90;;;1.99;67.88;100857.63;5106573;28;20203;-68
2023/01/06 07:49:01;;;;;;;3.73;3.33;;;2.20;99.90;;;2.04;67.56;100858.69;5108165;28;20298;-68
2023/01/06 07:51:30;;;;;;;4.97;3.47;;;2.20;99.90;;;2.04;67.50;100857.00;5107130;28;20751;-67
2023/01/06 07:53:58;;;;;;;4.13;3.60;;;2.20;99.90;;;2.06;67.35;100863.03;5104658;28;20216;-67
2023/01/06 07:56:27;;;;;;;3.57;3.10;;;2.20;99.90;;;2.05;67.41;100860.41;5107707;28;20272;-65
2023/01/06 07:58:55;;;;;;;4.33;3.10;;;2.20;99.90;;;2.07;67.64;100874.06;5108447;28;20226;-68
2023/01/06 08:01:24;;;;;;;3.97;3.10;;;2.20;99.90;;;2.08;67.02;100868.16;5108694;28;20228;-66
2023/01/06 08:03:52;;;;;;;2.73;2.53;;;2.20;99.90;;;2.07;67.16;100879.13;5102186;28;20266;-69
2023/01/06 08:06:22;;;;;;;4.33;2.87;;;2.30;99.90;;;2.07;67.42;100874.06;5106902;28;20211;-68
2023/01/06 08:08:51;;;;;;;3.60;3.20;;;2.20;99.90;;;2.09;66.99;100873.28;5108218;28;20200;-66
2023/01/06 08:11:19;;;;;;;5.17;3.73;;;2.20;99.90;;;2.15;66.96;100882.81;5106840;28;20601;-64
2023/01/06 08:13:48;;;;;;;4.13;3.33;;;2.40;99.90;;;2.19;67.55;100884.66;5106255;28;20636;-65
2023/01/06 08:16:16;;;;;;;5.23;3.07;;;2.30;99.90;;;2.22;67.22;100884.75;5105768;28;20277;-65
2023/01/06 08:18:45;;;;;;;4.50;3.73;;;2.40;99.90;;;2.24;67.26;100884.81;5106058;28;20304;-65
2023/01/06 08:21:13;;;;;;;4.17;3.33;;;2.40;99.90;;;2.26;67.10;100891.69;5100514;28;20227;-68
2023/01/06 08:23:43;;;;;;;4.07;3.40;;;2.40;99.90;;;2.22;66.57;100884.75;5110113;28;20234;-70
2023/01/06 08:26:15;;;;;;;4.33;3.33;;;2.40;99.90;;;2.21;65.93;100892.31;5114478;28;20257;-71
2023/01/06 08:28:45;;;;;;;3.80;3.27;;;2.30;99.90;;;2.23;65.79;100893.25;5109400;28;20246;-72
2023/01/06 08:31:17;;;;;;;4.67;3.90;;;2.50;99.90;;;2.26;66.11;100885.75;5108971;28;20208;-70
2023/01/06 08:33:47;;;;;;;5.70;3.53;;;2.40;99.90;;;2.33;66.46;100887.69;5107106;28;20225;-69
2023/01/06 08:36:19;;;;;;;4.53;3.20;;;2.40;99.90;;;2.37;65.29;100889.53;5108742;28;20200;-74
2023/01/06 08:38:51;;;;;;;3.53;3.23;;;2.50;99.90;;;2.35;65.75;100894.53;5107945;28;20227;-71
2023/01/06 08:41:20;;;;;;;3.80;2.80;;;2.50;99.90;;;2.32;65.76;100897.00;5110237;28;20628;-71
2023/01/06 08:43:49;;;;;;;3.57;3.10;;;2.50;99.90;;;2.31;66.08;100902.00;5109879;28;20200;-65
2023/01/06 08:46:20;;;;;;;4.17;3.23;;;2.40;99.90;;;2.31;65.86;100900.34;5106997;28;20250;-62
2023/01/06 08:48:49;;;;;;;4.63;3.10;;;2.50;99.90;;;2.34;64.93;100899.59;5102564;28;20204;-64
2023/01/06 08:51:22;;;;;;;3.10;2.80;;;2.50;99.90;;;2.32;64.97;100902.09;5106383;28;20348;-66
2023/01/06 08:53:53;;;;;;;3.43;2.87;;;2.40;99.90;;;2.28;65.26;100900.22;5102842;28;20207;-63
2023/01/06 08:56:28;;;;;;;3.87;3.10;;;2.40;99.90;;;2.23;65.31;100891.56;5100003;28;20204;-65
2023/01/06 08:58:59;;;;;;;4.03;2.73;;;2.40;99.90;;;2.24;65.33;100894.97;5107359;28;20211;-65
2023/01/06 09:01:31;;;;;;;3.87;2.83;;;2.40;99.90;;;2.30;65.32;100900.28;5106306;28;20273;-64
2023/01/06 09:04:02;;;;;;;4.17;3.63;;;2.40;99.90;;;2.34;65.58;100904.66;5109582;28;20248;-65
2023/01/06 09:06:31;;;;;;;5.00;3.97;;;2.50;99.90;;;2.37;65.78;100904.78;5106795;28;20344;-66
2023/01/06 09:09:03;;;;;;;3.87;3.47;;;2.60;99.90;;;2.38;65.35;100897.19;5104338;28;20304;-63
2023/01/06 09:11:32;;;;;;;3.43;2.90;;;2.50;99.90;;;2.43;64.94;100907.56;5108905;28;20692;-64
2023/01/06 09:14:01;;;;;;;3.67;3.20;;;2.50;99.90;;;2.43;64.78;100899.91;5107716;28;20200;-64
2023/01/06 09:16:30;;;;;;;4.37;3.43;;;2.60;99.90;;;2.47;64.84;100903.41;5106053;28;20650;-63
2023/01/06 09:18:58;;;;;;;2.97;2.77;;;2.60;99.90;;;2.50;64.84;100908.59;5098127;28;20227;-66
2023/01/06 09:21:27;;;;;;;3.10;2.80;;;2.60;99.90;;;2.50;64.57;100906.94;5098538;28;20301;-66
2023/01/06 09:23:55;;;;;;;3.23;2.90;;;2.60;99.90;;;2.49;64.67;100912.84;5106584;28;20219;-65
2023/01/06 09:26:25;;;;;;;2.80;2.60;;;2.60;99.90;;;2.46;64.13;100894.91;5106107;28;20239;-65
2023/01/06 09:28:53;;;;;;;6.90;3.80;;;2.60;99.90;;;2.49;64.22;100899.25;5104669;28;20207;-64
2023/01/06 09:31:22;;;;;;;3.43;2.97;;;2.60;99.90;;;2.51;63.40;100897.66;5099708;28;20253;-64
2023/01/06 09:33:50;;;;;;;4.00;3.60;;;2.60;99.90;;;2.52;63.75;100901.91;5101934;28;20235;-65
2023/01/06 09:36:19;;;;;;;3.77;3.00;;;2.70;99.90;;;2.56;63.28;100903.75;5107677;28;20203;-64
2023/01/06 09:38:47;;;;;;;3.50;2.90;;;2.70;99.90;;;2.60;63.53;100908.13;5104355;28;20227;-64
2023/01/06 09:41:43;;;;;;;4.03;3.53;;;2.70;99.90;;;2.63;63.80;100887.88;5104922;28;20564;-62
2023/01/06 09:44:17;;;;;;;3.80;3.00;;;2.80;99.90;;;2.68;63.85;100886.34;5103679;28;20200;-64
2023/01/06 09:46:50;;;;;;;4.17;2.97;;;2.80;99.90;;;2.71;63.11;100894.09;5105609;28;20616;-64
2023/01/06 09:49:27;;;;;;;3.13;2.83;;;2.80;99.90;;;2.71;62.44;100894.09;5104969;28;20215;-65
2023/01/06 09:51:59;;;;;;;3.27;2.97;;;2.90;99.90;;;2.69;61.34;100889.75;5107103;28;20246;-66
2023/01/06 09:54:34;;;;;;;3.73;2.80;;;2.80;99.90;;;2.66;61.65;100904.13;5106676;28;20660;-65
2023/01/06 09:57:10;;;;;;;2.83;2.57;;;2.80;99.90;;;2.69;61.46;100905.91;5107656;28;20685;-66
2023/01/06 09:59:48;;;;;;;3.53;2.83;;;2.70;99.90;;;2.65;61.38;100897.31;5107745;28;20196;-64
2023/01/06 10:02:22;;;;;;;3.33;3.03;;;2.80;99.90;;;2.67;61.65;100894.81;5109137;28;20200;-64
2023/01/06 10:04:51;;;;;;;3.00;2.80;;;2.80;99.90;;;2.68;62.20;100886.34;5112705;28;20622;-65
2023/01/06 10:07:29;;;;;;;4.50;3.80;;;2.70;99.90;;;2.69;61.87;100884.66;5111642;28;20277;-65
2023/01/06 10:10:17;;;;;;;3.23;2.93;;;2.80;99.90;;;2.72;62.09;100879.69;5109374;28;20257;-66
2023/01/06 10:13:03;;;;;;;3.10;2.80;;;2.80;99.90;;;2.79;62.90;100887.56;5111004;28;20202;-65
2023/01/06 10:15:40;;;;;;;4.27;3.40;;;2.90;99.90;;;2.81;62.18;100880.00;5112308;28;20204;-62
2023/01/06 10:18:26;;;;;;;5.20;3.57;;;2.90;99.90;;;2.81;61.85;100880.88;5105879;28;20216;-64
2023/01/06 10:21:03;;;;;;;4.00;3.27;;;2.90;99.90;;;2.79;62.38;100871.44;5109631;28;20325;-63
2023/01/06 10:24:19;;;;;;;4.07;3.67;;;2.90;99.90;;;2.83;62.78;100874.13;5105773;28;20192;-64
2023/01/06 10:26:54;;;;;;;2.93;2.63;;;3.00;99.90;;;2.82;61.57;100879.19;5091964;28;20204;-66
2023/01/06 10:29:30;;;;;;;3.80;3.40;;;2.90;99.90;;;2.80;61.75;100868.97;5112111;28;20711;-64
2023/01/06 10:32:02;;;;;;;3.87;3.23;;;2.90;99.90;;;2.79;61.81;100864.66;5110664;28;20684;-65
2023/01/06 10:34:34;;;;;;;4.40;4.00;;;2.90;99.90;;;2.81;61.63;100857.97;5101387;28;20265;-66
2023/01/06 10:37:13;;;;;;;3.57;3.27;;;2.90;99.90;;;2.78;62.24;100857.84;5106172;28;20207;-66
2023/01/06 10:39:45;;;;;;;4.10;3.67;;;2.90;99.90;;;2.76;61.93;100864.59;5109641;28;20231;-67
2023/01/06 10:45:15;;;;;;;4.73;3.20;;;2.90;99.90;;;2.80;62.49;100860.44;5104172;28;20200;-64
2023/01/06 10:47:45;;;;;;;3.90;3.53;;;2.90;99.90;;;2.81;63.07;100852.88;5111807;28;20601;-64
2023/01/06 10:50:16;;;;;;;5.17;3.80;;;2.90;99.90;;;2.81;63.09;100846.91;5107671;28;20262;-64
2023/01/06 10:52:45;;;;;;;5.10;3.83;;;3.00;99.90;;;2.86;62.96;100847.91;5110052;28;20195;-67
2023/01/06 10:55:46;;;;;;;4.10;3.70;;;3.00;99.90;;;2.88;62.73;100847.16;5110501;28;20237;-65